sensor_id;sensor_type;location;lat;lon;timestamp;temperature;humidity
78886;DHT22;68269;52.514;5.722;2023-11-21T00:02:13;10.10;74.60
78886;DHT22;68269;52.514;5.722;2023-11-21T00:04:42;10.10;74.60
78886;DHT22;68269;52.514;5.722;2023-11-21T00:07:11;10.10;74.60
78886;DHT22;68269;52.514;5.722;2023-11-21T00:09:41;10.10;74.60
78886;DHT22;68269;52.514;5.722;2023-11-21T00:12:10;10.10;74.60
78886;DHT22;68269;52.514;5.722;2023-11-21T00:14:43;10.10;74.60
78886;DHT22;68269;52.514;5.722;2023-11-21T00:17:13;10.00;74.60
78886;DHT22;68269;52.514;5.722;2023-11-21T00:19:42;10.10;74.60
78886;DHT22;68269;52.514;5.722;2023-11-21T00:22:11;10.10;74.60
78886;DHT22;68269;52.514;5.722;2023-11-21T00:24:41;10.10;74.50
78886;DHT22;68269;52.514;5.722;2023-11-21T00:27:10;10.10;74.50
78886;DHT22;68269;52.514;5.722;2023-11-21T00:29:39;10.10;74.40
78886;DHT22;68269;52.514;5.722;2023-11-21T00:32:11;10.10;74.50
78886;DHT22;68269;52.514;5.722;2023-11-21T00:34:40;10.10;74.50
78886;DHT22;68269;52.514;5.722;2023-11-21T00:37:10;10.00;74.50
78886;DHT22;68269;52.514;5.722;2023-11-21T00:39:39;10.00;74.50
78886;DHT22;68269;52.514;5.722;2023-11-21T00:42:09;10.00;74.50
78886;DHT22;68269;52.514;5.722;2023-11-21T00:44:38;10.10;74.60
78886;DHT22;68269;52.514;5.722;2023-11-21T00:47:11;10.10;74.50
78886;DHT22;68269;52.514;5.722;2023-11-21T00:49:41;10.10;74.50
78886;DHT22;68269;52.514;5.722;2023-11-21T00:52:10;10.10;74.50
78886;DHT22;68269;52.514;5.722;2023-11-21T00:54:39;10.10;74.50
78886;DHT22;68269;52.514;5.722;2023-11-21T00:57:09;10.10;74.50
78886;DHT22;68269;52.514;5.722;2023-11-21T00:59:38;10.10;74.50
78886;DHT22;68269;52.514;5.722;2023-11-21T01:02:07;10.10;74.50
78886;DHT22;68269;52.514;5.722;2023-11-21T01:04:39;10.10;74.50
78886;DHT22;68269;52.514;5.722;2023-11-21T01:07:09;10.10;74.50
78886;DHT22;68269;52.514;5.722;2023-11-21T01:09:39;10.10;74.40
78886;DHT22;68269;52.514;5.722;2023-11-21T01:12:10;10.10;74.40
78886;DHT22;68269;52.514;5.722;2023-11-21T01:14:40;10.10;74.50
78886;DHT22;68269;52.514;5.722;2023-11-21T01:17:10;10.10;74.40
78886;DHT22;68269;52.514;5.722;2023-11-21T01:19:41;10.10;74.50
78886;DHT22;68269;52.514;5.722;2023-11-21T01:22:11;10.10;74.50
78886;DHT22;68269;52.514;5.722;2023-11-21T01:24:42;10.10;74.50
78886;DHT22;68269;52.514;5.722;2023-11-21T01:27:12;10.10;74.50
78886;DHT22;68269;52.514;5.722;2023-11-21T01:29:41;10.10;74.50
78886;DHT22;68269;52.514;5.722;2023-11-21T01:32:11;10.20;74.50
78886;DHT22;68269;52.514;5.722;2023-11-21T01:34:43;10.20;74.40
78886;DHT22;68269;52.514;5.722;2023-11-21T01:37:12;10.20;74.40
78886;DHT22;68269;52.514;5.722;2023-11-21T01:39:41;10.20;74.40
78886;DHT22;68269;52.514;5.722;2023-11-21T01:42:10;10.10;74.40
78886;DHT22;68269;52.514;5.722;2023-11-21T01:44:40;10.10;74.50
78886;DHT22;68269;52.514;5.722;2023-11-21T01:47:09;10.10;74.50
78886;DHT22;68269;52.514;5.722;2023-11-21T01:49:42;10.10;74.50
78886;DHT22;68269;52.514;5.722;2023-11-21T01:52:12;10.10;74.50
78886;DHT22;68269;52.514;5.722;2023-11-21T01:54:42;10.10;74.50
78886;DHT22;68269;52.514;5.722;2023-11-21T01:57:11;10.10;74.50
78886;DHT22;68269;52.514;5.722;2023-11-21T01:59:43;10.10;74.50
78886;DHT22;68269;52.514;5.722;2023-11-21T02:02:13;10.00;74.60
78886;DHT22;68269;52.514;5.722;2023-11-21T02:04:45;10.10;74.60
78886;DHT22;68269;52.514;5.722;2023-11-21T02:07:15;10.10;74.60
78886;DHT22;68269;52.514;5.722;2023-11-21T02:09:45;10.00;74.50
78886;DHT22;68269;52.514;5.722;2023-11-21T02:12:15;10.00;74.60
78886;DHT22;68269;52.514;5.722;2023-11-21T02:14:45;10.00;74.60
78886;DHT22;68269;52.514;5.722;2023-11-21T02:17:14;10.10;74.60
78886;DHT22;68269;52.514;5.722;2023-11-21T02:19:47;10.10;74.60
78886;DHT22;68269;52.514;5.722;2023-11-21T02:22:18;10.00;74.60
78886;DHT22;68269;52.514;5.722;2023-11-21T02:24:51;10.00;74.60
78886;DHT22;68269;52.514;5.722;2023-11-21T02:27:20;10.00;74.60
78886;DHT22;68269;52.514;5.722;2023-11-21T02:29:49;10.00;74.60
78886;DHT22;68269;52.514;5.722;2023-11-21T02:32:19;10.00;74.60
78886;DHT22;68269;52.514;5.722;2023-11-21T02:34:49;10.00;74.60
78886;DHT22;68269;52.514;5.722;2023-11-21T02:37:19;10.10;74.60
78886;DHT22;68269;52.514;5.722;2023-11-21T02:39:51;10.10;74.50
78886;DHT22;68269;52.514;5.722;2023-11-21T02:42:21;10.10;74.60
78886;DHT22;68269;52.514;5.722;2023-11-21T02:44:50;10.10;74.60
78886;DHT22;68269;52.514;5.722;2023-11-21T02:47:19;10.10;74.60
78886;DHT22;68269;52.514;5.722;2023-11-21T02:49:49;10.10;74.60
78886;DHT22;68269;52.514;5.722;2023-11-21T02:52:18;10.10;74.60
78886;DHT22;68269;52.514;5.722;2023-11-21T02:54:50;10.10;74.60
78886;DHT22;68269;52.514;5.722;2023-11-21T02:57:20;10.10;74.60
78886;DHT22;68269;52.514;5.722;2023-11-21T02:59:49;10.10;74.60
78886;DHT22;68269;52.514;5.722;2023-11-21T03:02:18;10.10;74.70
78886;DHT22;68269;52.514;5.722;2023-11-21T03:04:48;10.10;74.70
78886;DHT22;68269;52.514;5.722;2023-11-21T03:07:19;10.10;74.70
78886;DHT22;68269;52.514;5.722;2023-11-21T03:09:51;10.10;74.70
78886;DHT22;68269;52.514;5.722;2023-11-21T03:12:20;10.10;74.70
78886;DHT22;68269;52.514;5.722;2023-11-21T03:14:49;10.10;74.70
78886;DHT22;68269;52.514;5.722;2023-11-21T03:17:21;10.10;74.70
78886;DHT22;68269;52.514;5.722;2023-11-21T03:19:50;10.00;74.80
78886;DHT22;68269;52.514;5.722;2023-11-21T03:22:20;10.00;74.80
78886;DHT22;68269;52.514;5.722;2023-11-21T03:24:52;10.10;74.80
78886;DHT22;68269;52.514;5.722;2023-11-21T03:27:22;10.10;74.80
78886;DHT22;68269;52.514;5.722;2023-11-21T03:29:51;10.10;74.80
78886;DHT22;68269;52.514;5.722;2023-11-21T03:32:20;10.10;74.80
78886;DHT22;68269;52.514;5.722;2023-11-21T03:34:55;10.10;74.80
78886;DHT22;68269;52.514;5.722;2023-11-21T03:37:25;10.10;74.80
78886;DHT22;68269;52.514;5.722;2023-11-21T03:39:57;10.10;74.80
78886;DHT22;68269;52.514;5.722;2023-11-21T03:42:27;10.00;74.90
78886;DHT22;68269;52.514;5.722;2023-11-21T03:44:56;10.10;74.90
78886;DHT22;68269;52.514;5.722;2023-11-21T03:47:26;10.10;74.80
78886;DHT22;68269;52.514;5.722;2023-11-21T03:49:55;10.10;74.80
78886;DHT22;68269;52.514;5.722;2023-11-21T03:52:25;10.10;74.80
78886;DHT22;68269;52.514;5.722;2023-11-21T03:54:57;10.10;74.80
78886;DHT22;68269;52.514;5.722;2023-11-21T03:57:26;10.10;74.80
78886;DHT22;68269;52.514;5.722;2023-11-21T03:59:57;10.10;74.80
78886;DHT22;68269;52.514;5.722;2023-11-21T04:02:26;10.10;74.80
78886;DHT22;68269;52.514;5.722;2023-11-21T04:04:57;10.10;74.80
78886;DHT22;68269;52.514;5.722;2023-11-21T04:07:27;10.10;74.90
78886;DHT22;68269;52.514;5.722;2023-11-21T04:09:59;10.10;74.80
78886;DHT22;68269;52.514;5.722;2023-11-21T04:12:28;10.10;74.90
78886;DHT22;68269;52.514;5.722;2023-11-21T04:14:57;10.10;74.90
78886;DHT22;68269;52.514;5.722;2023-11-21T04:17:27;10.10;74.80
78886;DHT22;68269;52.514;5.722;2023-11-21T04:19:56;10.10;74.90
78886;DHT22;68269;52.514;5.722;2023-11-21T04:22:25;10.10;74.90
78886;DHT22;68269;52.514;5.722;2023-11-21T04:24:54;10.10;75.00
78886;DHT22;68269;52.514;5.722;2023-11-21T04:27:26;10.10;74.90
78886;DHT22;68269;52.514;5.722;2023-11-21T04:29:56;10.20;75.00
78886;DHT22;68269;52.514;5.722;2023-11-21T04:32:25;10.20;74.90
78886;DHT22;68269;52.514;5.722;2023-11-21T04:34:54;10.20;74.90
78886;DHT22;68269;52.514;5.722;2023-11-21T04:37:24;10.10;75.00
78886;DHT22;68269;52.514;5.722;2023-11-21T04:39:53;10.10;75.00
78886;DHT22;68269;52.514;5.722;2023-11-21T04:42:22;10.20;75.00
78886;DHT22;68269;52.514;5.722;2023-11-21T04:44:54;10.20;75.00
78886;DHT22;68269;52.514;5.722;2023-11-21T04:47:23;10.20;75.00
78886;DHT22;68269;52.514;5.722;2023-11-21T04:49:52;10.20;75.00
78886;DHT22;68269;52.514;5.722;2023-11-21T04:52:22;10.20;75.00
78886;DHT22;68269;52.514;5.722;2023-11-21T04:54:51;10.30;75.00
78886;DHT22;68269;52.514;5.722;2023-11-21T04:57:20;10.30;75.10
78886;DHT22;68269;52.514;5.722;2023-11-21T04:59:50;10.30;75.10
78886;DHT22;68269;52.514;5.722;2023-11-21T05:02:22;10.30;75.10
78886;DHT22;68269;52.514;5.722;2023-11-21T05:04:51;10.30;75.10
78886;DHT22;68269;52.514;5.722;2023-11-21T05:07:22;10.30;75.10
78886;DHT22;68269;52.514;5.722;2023-11-21T05:09:55;10.40;75.10
78886;DHT22;68269;52.514;5.722;2023-11-21T05:12:24;10.40;75.10
78886;DHT22;68269;52.514;5.722;2023-11-21T05:14:53;10.40;75.10
78886;DHT22;68269;52.514;5.722;2023-11-21T05:17:27;10.40;75.10
78886;DHT22;68269;52.514;5.722;2023-11-21T05:19:56;10.40;75.20
78886;DHT22;68269;52.514;5.722;2023-11-21T05:22:26;10.50;75.20
78886;DHT22;68269;52.514;5.722;2023-11-21T05:24:56;10.50;75.20
78886;DHT22;68269;52.514;5.722;2023-11-21T05:27:25;10.50;75.20
78886;DHT22;68269;52.514;5.722;2023-11-21T05:29:54;10.50;75.20
78886;DHT22;68269;52.514;5.722;2023-11-21T05:32:26;10.50;75.20
78886;DHT22;68269;52.514;5.722;2023-11-21T05:34:55;10.50;75.20
78886;DHT22;68269;52.514;5.722;2023-11-21T05:37:25;10.50;75.30
78886;DHT22;68269;52.514;5.722;2023-11-21T05:39:55;10.50;75.30
78886;DHT22;68269;52.514;5.722;2023-11-21T05:42:24;10.60;75.30
78886;DHT22;68269;52.514;5.722;2023-11-21T05:44:53;10.60;75.40
78886;DHT22;68269;52.514;5.722;2023-11-21T05:47:28;10.60;75.40
78886;DHT22;68269;52.514;5.722;2023-11-21T05:49:57;10.60;75.40
78886;DHT22;68269;52.514;5.722;2023-11-21T05:52:26;10.60;75.40
78886;DHT22;68269;52.514;5.722;2023-11-21T05:54:55;10.60;75.40
78886;DHT22;68269;52.514;5.722;2023-11-21T05:57:25;10.60;75.50
78886;DHT22;68269;52.514;5.722;2023-11-21T05:59:54;10.60;75.50
78886;DHT22;68269;52.514;5.722;2023-11-21T06:02:23;10.60;75.50
78886;DHT22;68269;52.514;5.722;2023-11-21T06:04:55;10.60;75.50
78886;DHT22;68269;52.514;5.722;2023-11-21T06:07:24;10.60;75.50
78886;DHT22;68269;52.514;5.722;2023-11-21T06:09:53;10.70;75.40
78886;DHT22;68269;52.514;5.722;2023-11-21T06:12:23;10.70;75.50
78886;DHT22;68269;52.514;5.722;2023-11-21T06:14:52;10.70;75.50
78886;DHT22;68269;52.514;5.722;2023-11-21T06:17:21;10.70;75.50
78886;DHT22;68269;52.514;5.722;2023-11-21T06:19:51;10.70;75.50
78886;DHT22;68269;52.514;5.722;2023-11-21T06:22:24;10.70;75.50
78886;DHT22;68269;52.514;5.722;2023-11-21T06:24:53;10.70;75.50
78886;DHT22;68269;52.514;5.722;2023-11-21T06:27:22;10.70;75.50
78886;DHT22;68269;52.514;5.722;2023-11-21T06:29:52;10.70;75.50
78886;DHT22;68269;52.514;5.722;2023-11-21T06:32:21;10.70;75.50
78886;DHT22;68269;52.514;5.722;2023-11-21T06:34:50;10.70;75.50
78886;DHT22;68269;52.514;5.722;2023-11-21T06:37:20;10.70;75.60
78886;DHT22;68269;52.514;5.722;2023-11-21T06:39:52;10.70;75.60
78886;DHT22;68269;52.514;5.722;2023-11-21T06:42:23;10.70;75.50
78886;DHT22;68269;52.514;5.722;2023-11-21T06:44:52;10.80;75.50
78886;DHT22;68269;52.514;5.722;2023-11-21T06:47:23;10.80;75.60
78886;DHT22;68269;52.514;5.722;2023-11-21T06:49:55;10.80;75.60
78886;DHT22;68269;52.514;5.722;2023-11-21T06:52:25;10.80;75.60
78886;DHT22;68269;52.514;5.722;2023-11-21T06:54:57;10.80;75.60
78886;DHT22;68269;52.514;5.722;2023-11-21T06:57:26;10.80;75.60
78886;DHT22;68269;52.514;5.722;2023-11-21T06:59:55;10.80;75.60
78886;DHT22;68269;52.514;5.722;2023-11-21T07:02:25;10.80;75.70
78886;DHT22;68269;52.514;5.722;2023-11-21T07:04:55;10.80;75.70
78886;DHT22;68269;52.514;5.722;2023-11-21T07:07:24;10.80;75.70
78886;DHT22;68269;52.514;5.722;2023-11-21T07:09:56;10.80;75.70
78886;DHT22;68269;52.514;5.722;2023-11-21T07:12:29;10.80;75.70
78886;DHT22;68269;52.514;5.722;2023-11-21T07:14:59;10.90;75.70
78886;DHT22;68269;52.514;5.722;2023-11-21T07:17:28;10.90;75.70
78886;DHT22;68269;52.514;5.722;2023-11-21T07:19:58;10.90;75.80
78886;DHT22;68269;52.514;5.722;2023-11-21T07:22:27;10.90;75.80
78886;DHT22;68269;52.514;5.722;2023-11-21T07:24:59;10.90;75.80
78886;DHT22;68269;52.514;5.722;2023-11-21T07:27:28;10.90;75.80
78886;DHT22;68269;52.514;5.722;2023-11-21T07:30:00;10.90;75.80
78886;DHT22;68269;52.514;5.722;2023-11-21T07:32:30;10.90;75.80
78886;DHT22;68269;52.514;5.722;2023-11-21T07:35:00;10.90;75.90
78886;DHT22;68269;52.514;5.722;2023-11-21T07:37:29;10.90;75.90
78886;DHT22;68269;52.514;5.722;2023-11-21T07:40:01;10.90;75.90
78886;DHT22;68269;52.514;5.722;2023-11-21T07:42:33;11.00;75.90
78886;DHT22;68269;52.514;5.722;2023-11-21T07:45:04;10.90;75.90
78886;DHT22;68269;52.514;5.722;2023-11-21T07:47:33;11.00;75.90
78886;DHT22;68269;52.514;5.722;2023-11-21T07:50:02;11.00;75.90
78886;DHT22;68269;52.514;5.722;2023-11-21T07:52:33;11.10;75.90
78886;DHT22;68269;52.514;5.722;2023-11-21T07:55:06;11.10;75.70
78886;DHT22;68269;52.514;5.722;2023-11-21T07:57:35;11.10;75.50
78886;DHT22;68269;52.514;5.722;2023-11-21T08:00:06;11.30;75.40
78886;DHT22;68269;52.514;5.722;2023-11-21T08:02:38;11.30;75.40
78886;DHT22;68269;52.514;5.722;2023-11-21T08:05:08;11.30;75.30
78886;DHT22;68269;52.514;5.722;2023-11-21T08:07:38;11.30;75.20
78886;DHT22;68269;52.514;5.722;2023-11-21T08:10:10;11.40;75.20
78886;DHT22;68269;52.514;5.722;2023-11-21T08:12:40;11.40;75.20
78886;DHT22;68269;52.514;5.722;2023-11-21T08:15:09;11.40;75.10
78886;DHT22;68269;52.514;5.722;2023-11-21T08:17:39;11.40;75.20
78886;DHT22;68269;52.514;5.722;2023-11-21T08:20:10;11.40;75.10
78886;DHT22;68269;52.514;5.722;2023-11-21T08:22:43;11.40;75.10
78886;DHT22;68269;52.514;5.722;2023-11-21T08:25:16;11.40;75.30
78886;DHT22;68269;52.514;5.722;2023-11-21T08:27:46;11.30;75.40
78886;DHT22;68269;52.514;5.722;2023-11-21T08:30:16;11.30;75.50
78886;DHT22;68269;52.514;5.722;2023-11-21T08:32:47;11.30;75.50
78886;DHT22;68269;52.514;5.722;2023-11-21T08:35:17;11.20;75.70
78886;DHT22;68269;52.514;5.722;2023-11-21T08:37:46;11.20;75.70
78886;DHT22;68269;52.514;5.722;2023-11-21T08:40:18;11.20;75.80
78886;DHT22;68269;52.514;5.722;2023-11-21T08:42:48;11.10;75.80
78886;DHT22;68269;52.514;5.722;2023-11-21T08:45:19;11.10;75.90
78886;DHT22;68269;52.514;5.722;2023-11-21T08:47:48;11.10;75.90
78886;DHT22;68269;52.514;5.722;2023-11-21T08:50:18;11.10;75.90
78886;DHT22;68269;52.514;5.722;2023-11-21T08:52:48;11.10;76.00
78886;DHT22;68269;52.514;5.722;2023-11-21T08:55:20;11.10;76.00
78886;DHT22;68269;52.514;5.722;2023-11-21T08:57:49;11.10;76.00
78886;DHT22;68269;52.514;5.722;2023-11-21T09:00:18;11.10;76.10
78886;DHT22;68269;52.514;5.722;2023-11-21T09:02:48;11.00;76.10
78886;DHT22;68269;52.514;5.722;2023-11-21T09:05:18;11.00;76.20
78886;DHT22;68269;52.514;5.722;2023-11-21T09:07:47;11.00;76.20
78886;DHT22;68269;52.514;5.722;2023-11-21T09:10:19;11.00;76.20
78886;DHT22;68269;52.514;5.722;2023-11-21T09:12:49;11.00;76.20
78886;DHT22;68269;52.514;5.722;2023-11-21T09:15:18;11.00;76.10
78886;DHT22;68269;52.514;5.722;2023-11-21T09:17:48;11.00;76.00
78886;DHT22;68269;52.514;5.722;2023-11-21T09:20:17;11.00;76.00
78886;DHT22;68269;52.514;5.722;2023-11-21T09:22:49;11.00;76.00
78886;DHT22;68269;52.514;5.722;2023-11-21T09:25:21;11.10;76.10
78886;DHT22;68269;52.514;5.722;2023-11-21T09:27:50;11.10;76.00
78886;DHT22;68269;52.514;5.722;2023-11-21T09:30:19;11.10;76.00
78886;DHT22;68269;52.514;5.722;2023-11-21T09:32:50;11.10;75.90
78886;DHT22;68269;52.514;5.722;2023-11-21T09:35:20;11.10;75.90
78886;DHT22;68269;52.514;5.722;2023-11-21T09:37:50;11.10;76.00
78886;DHT22;68269;52.514;5.722;2023-11-21T09:40:22;11.10;76.00
78886;DHT22;68269;52.514;5.722;2023-11-21T09:42:55;11.10;76.00
78886;DHT22;68269;52.514;5.722;2023-11-21T09:45:26;11.10;76.00
78886;DHT22;68269;52.514;5.722;2023-11-21T09:47:57;11.10;76.00
78886;DHT22;68269;52.514;5.722;2023-11-21T09:50:26;11.10;76.00
78886;DHT22;68269;52.514;5.722;2023-11-21T09:53:07;11.10;75.90
78886;DHT22;68269;52.514;5.722;2023-11-21T09:55:45;11.10;75.90
78886;DHT22;68269;52.514;5.722;2023-11-21T09:58:16;11.10;75.90
78886;DHT22;68269;52.514;5.722;2023-11-21T10:00:47;11.10;75.90
78886;DHT22;68269;52.514;5.722;2023-11-21T10:03:16;11.10;75.90
78886;DHT22;68269;52.514;5.722;2023-11-21T10:05:46;11.10;75.90
78886;DHT22;68269;52.514;5.722;2023-11-21T10:08:17;11.20;75.90
78886;DHT22;68269;52.514;5.722;2023-11-21T10:10:53;11.20;75.90
78886;DHT22;68269;52.514;5.722;2023-11-21T10:13:23;11.20;75.90
78886;DHT22;68269;52.514;5.722;2023-11-21T10:15:53;11.20;76.00
78886;DHT22;68269;52.514;5.722;2023-11-21T10:18:26;11.20;75.90
78886;DHT22;68269;52.514;5.722;2023-11-21T10:20:56;11.20;76.00
78886;DHT22;68269;52.514;5.722;2023-11-21T10:23:26;11.20;76.00
78886;DHT22;68269;52.514;5.722;2023-11-21T10:25:59;11.20;76.00
78886;DHT22;68269;52.514;5.722;2023-11-21T10:28:28;11.20;76.00
78886;DHT22;68269;52.514;5.722;2023-11-21T10:30:58;11.20;76.00
78886;DHT22;68269;52.514;5.722;2023-11-21T10:33:28;11.10;76.00
78886;DHT22;68269;52.514;5.722;2023-11-21T10:35:59;11.10;76.00
78886;DHT22;68269;52.514;5.722;2023-11-21T10:38:33;11.10;76.00
78886;DHT22;68269;52.514;5.722;2023-11-21T10:41:14;11.10;76.00
78886;DHT22;68269;52.514;5.722;2023-11-21T10:43:44;11.10;76.00
78886;DHT22;68269;52.514;5.722;2023-11-21T10:46:14;11.20;76.00
78886;DHT22;68269;52.514;5.722;2023-11-21T10:48:43;11.30;75.90
78886;DHT22;68269;52.514;5.722;2023-11-21T10:51:13;11.30;75.90
78886;DHT22;68269;52.514;5.722;2023-11-21T10:53:42;11.30;75.80
78886;DHT22;68269;52.514;5.722;2023-11-21T10:56:14;11.40;75.70
78886;DHT22;68269;52.514;5.722;2023-11-21T10:58:49;11.40;75.70
78886;DHT22;68269;52.514;5.722;2023-11-21T11:01:19;11.40;75.70
78886;DHT22;68269;52.514;5.722;2023-11-21T11:03:50;11.40;75.70
78886;DHT22;68269;52.514;5.722;2023-11-21T11:06:21;11.40;75.70
78886;DHT22;68269;52.514;5.722;2023-11-21T11:08:53;11.40;75.80
78886;DHT22;68269;52.514;5.722;2023-11-21T11:11:23;11.40;75.80
78886;DHT22;68269;52.514;5.722;2023-11-21T11:13:53;11.30;75.90
78886;DHT22;68269;52.514;5.722;2023-11-21T11:16:23;11.40;75.90
78886;DHT22;68269;52.514;5.722;2023-11-21T11:18:52;11.30;75.90
78886;DHT22;68269;52.514;5.722;2023-11-21T11:21:34;11.30;75.90
78886;DHT22;68269;52.514;5.722;2023-11-21T11:24:20;11.30;76.00
78886;DHT22;68269;52.514;5.722;2023-11-21T11:26:58;11.30;76.00
78886;DHT22;68269;52.514;5.722;2023-11-21T11:29:35;11.30;76.00
78886;DHT22;68269;52.514;5.722;2023-11-21T11:32:16;11.30;76.10
78886;DHT22;68269;52.514;5.722;2023-11-21T11:34:56;11.30;76.10
78886;DHT22;68269;52.514;5.722;2023-11-21T11:37:27;11.30;76.00
78886;DHT22;68269;52.514;5.722;2023-11-21T11:39:57;11.40;75.90
78886;DHT22;68269;52.514;5.722;2023-11-21T11:42:30;11.40;75.90
78886;DHT22;68269;52.514;5.722;2023-11-21T11:45:02;11.40;75.80
78886;DHT22;68269;52.514;5.722;2023-11-21T11:47:47;11.40;75.90
78886;DHT22;68269;52.514;5.722;2023-11-21T11:50:18;11.40;75.90
78886;DHT22;68269;52.514;5.722;2023-11-21T11:52:48;11.30;75.90
78886;DHT22;68269;52.514;5.722;2023-11-21T11:55:20;11.30;75.90
78886;DHT22;68269;52.514;5.722;2023-11-21T11:57:53;11.30;75.90
78886;DHT22;68269;52.514;5.722;2023-11-21T12:00:33;11.30;75.90
78886;DHT22;68269;52.514;5.722;2023-11-21T12:03:04;11.30;75.80
78886;DHT22;68269;52.514;5.722;2023-11-21T12:05:35;11.30;75.90
78886;DHT22;68269;52.514;5.722;2023-11-21T12:08:06;11.30;75.90
78886;DHT22;68269;52.514;5.722;2023-11-21T12:10:37;11.20;75.90
78886;DHT22;68269;52.514;5.722;2023-11-21T12:13:10;11.10;75.90
78886;DHT22;68269;52.514;5.722;2023-11-21T12:15:39;11.10;76.00
78886;DHT22;68269;52.514;5.722;2023-11-21T12:18:09;11.10;76.00
78886;DHT22;68269;52.514;5.722;2023-11-21T12:20:38;11.10;76.00
78886;DHT22;68269;52.514;5.722;2023-11-21T12:23:09;11.10;76.00
78886;DHT22;68269;52.514;5.722;2023-11-21T12:25:40;11.10;75.90
78886;DHT22;68269;52.514;5.722;2023-11-21T12:28:12;11.20;75.90
78886;DHT22;68269;52.514;5.722;2023-11-21T12:30:43;11.20;75.90
78886;DHT22;68269;52.514;5.722;2023-11-21T12:33:12;11.30;75.80
78886;DHT22;68269;52.514;5.722;2023-11-21T12:35:43;11.30;75.80
78886;DHT22;68269;52.514;5.722;2023-11-21T12:38:13;11.30;75.70
78886;DHT22;68269;52.514;5.722;2023-11-21T12:40:45;11.30;75.70
78886;DHT22;68269;52.514;5.722;2023-11-21T12:43:17;11.30;75.70
78886;DHT22;68269;52.514;5.722;2023-11-21T12:45:47;11.20;75.80
78886;DHT22;68269;52.514;5.722;2023-11-21T12:48:16;11.20;75.80
78886;DHT22;68269;52.514;5.722;2023-11-21T12:50:50;11.10;75.80
78886;DHT22;68269;52.514;5.722;2023-11-21T12:53:20;11.10;75.90
78886;DHT22;68269;52.514;5.722;2023-11-21T12:55:49;11.10;75.90
78886;DHT22;68269;52.514;5.722;2023-11-21T12:58:22;11.10;75.90
78886;DHT22;68269;52.514;5.722;2023-11-21T13:00:53;11.10;75.90
78886;DHT22;68269;52.514;5.722;2023-11-21T13:03:25;11.10;75.90
78886;DHT22;68269;52.514;5.722;2023-11-21T13:05:56;11.10;75.80
78886;DHT22;68269;52.514;5.722;2023-11-21T13:08:27;11.10;75.90
78886;DHT22;68269;52.514;5.722;2023-11-21T13:10:57;11.00;75.90
78886;DHT22;68269;52.514;5.722;2023-11-21T13:13:30;11.00;75.90
78886;DHT22;68269;52.514;5.722;2023-11-21T13:16:01;11.00;76.00
78886;DHT22;68269;52.514;5.722;2023-11-21T13:18:31;11.00;76.00
78886;DHT22;68269;52.514;5.722;2023-11-21T13:21:02;11.00;75.90
78886;DHT22;68269;52.514;5.722;2023-11-21T13:23:36;11.00;75.90
78886;DHT22;68269;52.514;5.722;2023-11-21T13:26:07;10.90;75.90
78886;DHT22;68269;52.514;5.722;2023-11-21T13:28:41;10.90;75.90
78886;DHT22;68269;52.514;5.722;2023-11-21T13:31:12;10.90;75.90
78886;DHT22;68269;52.514;5.722;2023-11-21T13:33:53;10.90;75.80
78886;DHT22;68269;52.514;5.722;2023-11-21T13:36:31;10.80;75.80
78886;DHT22;68269;52.514;5.722;2023-11-21T13:39:01;10.80;75.80
78886;DHT22;68269;52.514;5.722;2023-11-21T13:41:34;10.80;75.80
78886;DHT22;68269;52.514;5.722;2023-11-21T13:44:07;10.80;75.70
78886;DHT22;68269;52.514;5.722;2023-11-21T13:46:42;10.80;75.80
78886;DHT22;68269;52.514;5.722;2023-11-21T13:49:12;10.80;75.70
78886;DHT22;68269;52.514;5.722;2023-11-21T13:51:42;10.80;75.70
78886;DHT22;68269;52.514;5.722;2023-11-21T13:54:14;10.80;75.70
78886;DHT22;68269;52.514;5.722;2023-11-21T13:56:46;10.80;75.70
78886;DHT22;68269;52.514;5.722;2023-11-21T13:59:19;10.90;75.50
78886;DHT22;68269;52.514;5.722;2023-11-21T14:01:51;11.00;75.30
78886;DHT22;68269;52.514;5.722;2023-11-21T14:04:26;11.10;75.00
78886;DHT22;68269;52.514;5.722;2023-11-21T14:07:16;11.10;74.90
78886;DHT22;68269;52.514;5.722;2023-11-21T14:09:53;11.20;74.70
78886;DHT22;68269;52.514;5.722;2023-11-21T14:12:24;11.30;74.60
78886;DHT22;68269;52.514;5.722;2023-11-21T14:14:56;11.30;74.50
78886;DHT22;68269;52.514;5.722;2023-11-21T14:17:26;11.30;74.40
78886;DHT22;68269;52.514;5.722;2023-11-21T14:19:55;11.10;74.50
78886;DHT22;68269;52.514;5.722;2023-11-21T14:22:25;11.00;74.70
78886;DHT22;68269;52.514;5.722;2023-11-21T14:24:54;10.90;74.80
78886;DHT22;68269;52.514;5.722;2023-11-21T14:27:26;10.90;75.00
78886;DHT22;68269;52.514;5.722;2023-11-21T14:29:58;10.80;75.00
78886;DHT22;68269;52.514;5.722;2023-11-21T14:32:27;10.80;75.00
78886;DHT22;68269;52.514;5.722;2023-11-21T14:34:57;10.70;75.10
78886;DHT22;68269;52.514;5.722;2023-11-21T14:37:26;10.60;75.20
78886;DHT22;68269;52.514;5.722;2023-11-21T14:39:56;10.60;75.20
78886;DHT22;68269;52.514;5.722;2023-11-21T14:42:25;10.50;75.30
78886;DHT22;68269;52.514;5.722;2023-11-21T14:44:58;10.50;75.30
78886;DHT22;68269;52.514;5.722;2023-11-21T14:47:32;10.50;75.20
78886;DHT22;68269;52.514;5.722;2023-11-21T14:50:00;10.50;75.20
78886;DHT22;68269;52.514;5.722;2023-11-21T14:52:49;10.40;75.20
78886;DHT22;68269;52.514;5.722;2023-11-21T14:55:22;10.40;75.20
78886;DHT22;68269;52.514;5.722;2023-11-21T14:57:57;10.30;75.20
78886;DHT22;68269;52.514;5.722;2023-11-21T15:00:31;10.30;75.20
78886;DHT22;68269;52.514;5.722;2023-11-21T15:03:11;10.30;75.20
78886;DHT22;68269;52.514;5.722;2023-11-21T15:05:51;10.20;75.30
78886;DHT22;68269;52.514;5.722;2023-11-21T15:08:20;10.20;75.30
78886;DHT22;68269;52.514;5.722;2023-11-21T15:10:52;10.10;75.30
78886;DHT22;68269;52.514;5.722;2023-11-21T15:13:22;10.10;75.30
78886;DHT22;68269;52.514;5.722;2023-11-21T15:15:53;10.10;75.20
78886;DHT22;68269;52.514;5.722;2023-11-21T15:18:22;10.00;75.20
78886;DHT22;68269;52.514;5.722;2023-11-21T15:20:52;10.00;75.20
78886;DHT22;68269;52.514;5.722;2023-11-21T15:23:21;10.00;75.20
78886;DHT22;68269;52.514;5.722;2023-11-21T15:25:50;9.90;75.20
78886;DHT22;68269;52.514;5.722;2023-11-21T15:28:19;9.80;75.10
78886;DHT22;68269;52.514;5.722;2023-11-21T15:30:53;9.70;75.20
78886;DHT22;68269;52.514;5.722;2023-11-21T15:33:23;9.70;75.10
78886;DHT22;68269;52.514;5.722;2023-11-21T15:35:53;9.60;75.10
78886;DHT22;68269;52.514;5.722;2023-11-21T15:38:24;9.60;75.20
78886;DHT22;68269;52.514;5.722;2023-11-21T15:40:53;9.60;75.10
78886;DHT22;68269;52.514;5.722;2023-11-21T15:43:25;9.50;75.10
78886;DHT22;68269;52.514;5.722;2023-11-21T15:45:57;9.50;75.10
78886;DHT22;68269;52.514;5.722;2023-11-21T15:48:28;9.40;75.10
78886;DHT22;68269;52.514;5.722;2023-11-21T15:50:57;9.40;75.00
78886;DHT22;68269;52.514;5.722;2023-11-21T15:53:28;9.40;75.00
78886;DHT22;68269;52.514;5.722;2023-11-21T15:55:58;9.40;75.00